Neptune Pioneer — 3EKH6 — position and weather

sailwx.info

Track history (hours):
 
Tides and Currents Weather Stations Pressure Air Temp Water Temp Dewpoint Dewpoint Depression Visibility Wind Speed Wind Dir Waves Ship Positions

Neptune Pioneer

Last reported at 2017-Jan-12 22:09 UTC. Time now 2017-Jan-17 13:04 UTC.
Position N 36°11' E 014°47'.

Length 190 m; draft 12.2 m.

Type: Cargo ship. MMSI: 372723000.

Date/timePositionNaut miles runAvg speedWind from/ knotsBaromVisibWave heightAir tempDewpointWater temp
2017-Jan-12 22:09N 36°11' E 014°47'813.4
2017-Jan-12 21:33N 36°13' E 014°37'1413.8
2017-Jan-12 20:33N 36°18' E 014°21'1413.8
2017-Jan-12 19:33N 36°23' E 014°05'1313.3
2017-Jan-12 18:33N 36°27' E 013°50'  
2017-Jan-09 20:29N 36°01' W 005°02'1414.8
2017-Jan-09 19:33N 35°59' W 005°19'25511.6
2017-Jan-08 21:33N 38°07' W 009°56'1413.7
2017-Jan-08 20:33N 38°20' W 009°60'1413.7
2017-Jan-08 19:33N 38°34' W 010°04'1313.5
2017-Jan-08 18:33N 38°47' W 010°06'1313.4
2017-Jan-08 17:33N 39°00' W 010°05'  
2017-Jan-06 10:21N 49°44' W 003°48'1012.5
2017-Jan-06 09:33N 49°49' W 003°34'1313.2
2017-Jan-06 08:33N 49°55' W 003°16'1413.9
2017-Jan-06 07:33N 50°01' W 002°57'1514.7
2017-Jan-06 06:33N 50°04' W 002°34'7012.8
2017-Jan-06 01:03N 50°23' W 000°48'1811.7
2017-Jan-05 23:33N 50°27' W 000°22'1313.2
2017-Jan-05 22:32N 50°30' W 000°01'1414.1
2017-Jan-05 21:34N 50°34' E 000°19'3113.8
2017-Jan-05 19:18N 50°50' E 001°02'912.7
2017-Jan-05 18:33N 50°57' E 001°13'1111.4
2017-Jan-05 17:33N 51°04' E 001°27'1110.8
2017-Jan-05 16:33N 51°11' E 001°40'1211.6
2017-Jan-05 15:33N 51°20' E 001°52'1413.5
2017-Jan-05 14:33N 51°31' E 002°04'47410.3
2017-Jan-03 16:33N 57°49' E 010°19'1110.8
2017-Jan-03 15:33N 57°49' E 010°39'1110.9
2017-Jan-03 14:33N 57°43' E 010°56'1212.2
2017-Jan-03 13:33N 57°35' E 011°13'1312.8
2017-Jan-03 12:33N 57°25' E 011°29'1313.4
2017-Jan-03 11:33N 57°13' E 011°37'1413.2
2017-Jan-03 10:30N 56°60' E 011°46'10011.1
2017-Jan-03 01:29N 55°22' E 011°03'1111.9
2017-Jan-03 00:33N 55°12' E 011°04'1212.2
2017-Jan-02 23:33N 54°60' E 010°59'1313.1
2017-Jan-02 22:33N 54°48' E 010°50'  
Track history (hours):
 
Tides and Currents Weather Stations Pressure Air Temp Water Temp Dewpoint Dewpoint Depression Visibility Wind Speed Wind Dir Waves Ship Positions

Neptune Pioneer

Last reported at 2017-Jan-12 22:09 UTC. Time now 2017-Jan-17 13:04 UTC.
Position N 36°11' E 014°47'.

Length 190 m; draft 12.2 m.

Type: Cargo ship. MMSI: 372723000.

Date/timePositionNaut miles runAvg speedWind from/ knotsBaromVisibWave heightAir tempDewpointWater temp
2017-Jan-12 22:09N 36°11' E 014°47'813.4
2017-Jan-12 21:33N 36°13' E 014°37'1413.8
2017-Jan-12 20:33N 36°18' E 014°21'1413.8
2017-Jan-12 19:33N 36°23' E 014°05'1313.3
2017-Jan-12 18:33N 36°27' E 013°50'  
2017-Jan-09 20:29N 36°01' W 005°02'1414.8
2017-Jan-09 19:33N 35°59' W 005°19'25511.6
2017-Jan-08 21:33N 38°07' W 009°56'1413.7
2017-Jan-08 20:33N 38°20' W 009°60'1413.7
2017-Jan-08 19:33N 38°34' W 010°04'1313.5
2017-Jan-08 18:33N 38°47' W 010°06'1313.4
2017-Jan-08 17:33N 39°00' W 010°05'  
2017-Jan-06 10:21N 49°44' W 003°48'1012.5
2017-Jan-06 09:33N 49°49' W 003°34'1313.2
2017-Jan-06 08:33N 49°55' W 003°16'1413.9
2017-Jan-06 07:33N 50°01' W 002°57'1514.7
2017-Jan-06 06:33N 50°04' W 002°34'7012.8
2017-Jan-06 01:03N 50°23' W 000°48'1811.7
2017-Jan-05 23:33N 50°27' W 000°22'1313.2
2017-Jan-05 22:32N 50°30' W 000°01'1414.1
2017-Jan-05 21:34N 50°34' E 000°19'3113.8
2017-Jan-05 19:18N 50°50' E 001°02'912.7
2017-Jan-05 18:33N 50°57' E 001°13'1111.4
2017-Jan-05 17:33N 51°04' E 001°27'1110.8
2017-Jan-05 16:33N 51°11' E 001°40'1211.6
2017-Jan-05 15:33N 51°20' E 001°52'1413.5
2017-Jan-05 14:33N 51°31' E 002°04'47410.3
2017-Jan-03 16:33N 57°49' E 010°19'1110.8
2017-Jan-03 15:33N 57°49' E 010°39'1110.9
2017-Jan-03 14:33N 57°43' E 010°56'1212.2
2017-Jan-03 13:33N 57°35' E 011°13'1312.8
2017-Jan-03 12:33N 57°25' E 011°29'1313.4
2017-Jan-03 11:33N 57°13' E 011°37'1413.2
2017-Jan-03 10:30N 56°60' E 011°46'10011.1
2017-Jan-03 01:29N 55°22' E 011°03'1111.9
2017-Jan-03 00:33N 55°12' E 011°04'1212.2
2017-Jan-02 23:33N 54°60' E 010°59'1313.1
2017-Jan-02 22:33N 54°48' E 010°50'  

Dump ship's entire track history